createdAt,value
2018-03-09T00:02:04.784Z,82.31
2018-03-09T00:04:40.126Z,82.57
2018-03-09T00:07:15.028Z,82.55
2018-03-09T00:09:49.863Z,82.44
2018-03-09T00:12:25.303Z,82.64
2018-03-09T00:15:00.380Z,82.70
2018-03-09T00:17:35.357Z,83.05
2018-03-09T00:20:10.628Z,83.48
2018-03-09T00:22:45.490Z,84.03
2018-03-09T00:25:20.791Z,84.30
2018-03-09T00:27:55.503Z,84.27
2018-03-09T00:30:30.467Z,84.33
2018-03-09T00:33:05.431Z,84.47
2018-03-09T00:35:40.411Z,84.46
2018-03-09T00:38:15.632Z,84.64
2018-03-09T00:40:50.639Z,84.62
2018-03-09T00:43:25.673Z,84.60
2018-03-09T00:46:00.599Z,84.29
2018-03-09T00:48:35.828Z,84.25
2018-03-09T00:51:17.829Z,84.26
2018-03-09T00:53:52.756Z,84.21
2018-03-09T00:56:28.269Z,84.38
2018-03-09T00:59:03.423Z,84.23
2018-03-09T01:01:38.543Z,84.49
2018-03-09T01:04:13.165Z,84.43
2018-03-09T01:06:48.475Z,84.54
2018-03-09T01:09:23.802Z,84.35
2018-03-09T01:11:58.626Z,84.54
2018-03-09T01:14:33.530Z,84.54
2018-03-09T01:17:08.654Z,84.51
2018-03-09T01:19:43.480Z,84.45
2018-03-09T01:22:18.499Z,84.25
2018-03-09T01:24:53.594Z,84.40
2018-03-09T01:27:28.586Z,84.50
2018-03-09T01:30:03.331Z,84.51
2018-03-09T01:32:38.551Z,84.12
2018-03-09T01:35:13.666Z,83.83
2018-03-09T01:37:48.514Z,83.81
2018-03-09T01:40:23.830Z,83.51
2018-03-09T01:42:58.634Z,83.31
2018-03-09T01:45:33.639Z,83.41
2018-03-09T01:48:08.639Z,83.41
2018-03-09T01:50:43.626Z,83.51
2018-03-09T01:53:18.983Z,83.56
2018-03-09T01:55:53.819Z,83.79
2018-03-09T01:58:28.960Z,83.90
2018-03-09T02:01:04.592Z,83.87
2018-03-09T02:03:39.858Z,84.08
2018-03-09T02:06:14.662Z,84.08
2018-03-09T02:08:49.500Z,84.14
2018-03-09T02:11:24.046Z,84.15
2018-03-09T02:13:58.639Z,84.27
2018-03-09T02:16:33.757Z,84.50
2018-03-09T02:19:08.827Z,84.69
2018-03-09T02:21:43.642Z,84.58
2018-03-09T02:24:18.726Z,84.75
2018-03-09T02:26:53.723Z,84.91
2018-03-09T02:29:28.716Z,84.82
2018-03-09T02:32:03.780Z,84.67
2018-03-09T02:34:38.719Z,84.82
2018-03-09T02:37:13.699Z,84.95
2018-03-09T02:39:48.796Z,85.09
2018-03-09T02:42:23.806Z,85.24
2018-03-09T02:44:58.760Z,85.37
2018-03-09T02:47:33.987Z,85.62
2018-03-09T02:50:08.689Z,85.71
2018-03-09T02:52:43.710Z,85.74
2018-03-09T02:55:18.835Z,85.94
2018-03-09T02:57:53.747Z,86.21
2018-03-09T03:00:28.843Z,86.25
2018-03-09T03:03:03.699Z,86.40
2018-03-09T03:05:38.941Z,86.64
2018-03-09T03:08:13.784Z,86.61
2018-03-09T03:10:49.022Z,86.58
2018-03-09T03:13:24.433Z,86.67
2018-03-09T03:15:59.952Z,86.75
2018-03-09T03:18:34.924Z,86.77
2018-03-09T03:21:10.194Z,86.74
2018-03-09T03:23:45.156Z,86.69
2018-03-09T03:26:20.098Z,86.65
2018-03-09T03:28:55.135Z,86.66
2018-03-09T03:31:30.224Z,86.52
2018-03-09T03:34:05.450Z,86.38
2018-03-09T03:36:40.879Z,86.20
2018-03-09T03:39:16.025Z,86.11
2018-03-09T03:41:50.955Z,86.01
2018-03-09T03:44:25.630Z,86.02
2018-03-09T03:47:00.899Z,86.24
2018-03-09T03:49:35.871Z,86.28
2018-03-09T03:52:10.906Z,86.40
2018-03-09T03:54:45.428Z,86.55
2018-03-09T03:57:20.279Z,86.53
2018-03-09T03:59:55.027Z,86.40
2018-03-09T04:02:29.955Z,86.50
2018-03-09T04:05:05.116Z,86.41
2018-03-09T04:07:39.954Z,86.50
2018-03-09T04:10:15.310Z,86.62
2018-03-09T04:12:50.119Z,86.67
2018-03-09T04:15:25.251Z,86.75
2018-03-09T04:18:00.299Z,86.88
2018-03-09T04:20:35.506Z,86.88
2018-03-09T04:23:10.943Z,86.85
2018-03-09T04:25:45.966Z,86.76
2018-03-09T04:28:21.390Z,86.73
2018-03-09T04:30:56.120Z,86.75
2018-03-09T04:33:31.299Z,86.80
2018-03-09T04:36:06.048Z,86.70
2018-03-09T04:38:41.036Z,86.85
2018-03-09T04:41:15.458Z,87.09
2018-03-09T04:43:49.999Z,87.41
2018-03-09T04:46:25.146Z,87.53
2018-03-09T04:48:59.640Z,87.47
2018-03-09T04:51:34.959Z,87.48
2018-03-09T04:54:10.093Z,87.49
2018-03-09T04:56:44.907Z,87.59
2018-03-09T04:59:19.575Z,87.73
2018-03-09T05:01:54.510Z,87.88
2018-03-09T05:04:29.533Z,87.97
2018-03-09T05:07:05.003Z,88.25
2018-03-09T05:09:39.639Z,88.50
2018-03-09T05:12:15.054Z,88.64
2018-03-09T05:14:49.934Z,88.69
2018-03-09T05:17:25.095Z,88.73
2018-03-09T05:20:00.430Z,88.79
2018-03-09T05:22:35.323Z,88.84
2018-03-09T05:25:10.369Z,88.92
2018-03-09T05:27:45.420Z,88.87
2018-03-09T05:30:21.064Z,88.94
2018-03-09T05:32:56.161Z,89.19
2018-03-09T05:35:31.143Z,89.12
2018-03-09T05:38:06.291Z,89.23
2018-03-09T05:40:40.587Z,89.31
2018-03-09T05:43:15.411Z,89.26
2018-03-09T05:45:50.631Z,89.24
2018-03-09T05:48:25.666Z,89.43
2018-03-09T05:51:00.204Z,89.53
2018-03-09T05:53:35.330Z,89.72
2018-03-09T05:56:10.117Z,89.67
2018-03-09T05:58:44.979Z,89.63
2018-03-09T06:01:19.636Z,89.70
2018-03-09T06:03:54.501Z,89.93
2018-03-09T06:06:29.766Z,90.04
2018-03-09T06:09:04.682Z,90.32
2018-03-09T06:11:40.067Z,90.28
2018-03-09T06:14:15.222Z,90.39
2018-03-09T06:16:50.249Z,90.67
2018-03-09T06:19:25.346Z,90.61
2018-03-09T06:22:00.390Z,90.57
2018-03-09T06:24:35.058Z,90.55
2018-03-09T06:27:10.568Z,90.53
2018-03-09T06:29:45.305Z,90.50
2018-03-09T06:32:20.287Z,90.35
2018-03-09T06:34:55.610Z,90.12
2018-03-09T06:37:31.171Z,89.88
2018-03-09T06:40:06.434Z,89.97
2018-03-09T06:42:41.735Z,90.04
2018-03-09T06:45:16.814Z,90.17
2018-03-09T06:47:51.905Z,90.15
2018-03-09T06:50:27.240Z,90.17
2018-03-09T06:53:02.481Z,90.27
2018-03-09T06:55:38.226Z,90.39
2018-03-09T06:58:13.476Z,90.30
2018-03-09T07:00:48.059Z,90.31
2018-03-09T07:03:23.575Z,90.28
2018-03-09T07:05:58.724Z,90.37
2018-03-09T07:08:34.174Z,90.46
2018-03-09T07:11:08.841Z,90.31
2018-03-09T07:13:43.671Z,90.42
2018-03-09T07:16:18.626Z,90.38
2018-03-09T07:18:53.555Z,90.43
2018-03-09T07:21:27.912Z,90.63
2018-03-09T07:24:03.347Z,90.67
2018-03-09T07:26:38.286Z,90.55
2018-03-09T07:29:13.346Z,90.37
2018-03-09T07:31:48.393Z,90.10
2018-03-09T07:34:23.649Z,90.07
2018-03-09T07:36:58.610Z,90.05
2018-03-09T07:39:33.660Z,90.18
2018-03-09T07:42:08.977Z,90.26
2018-03-09T07:44:43.965Z,90.14
2018-03-09T07:47:18.915Z,90.07
2018-03-09T07:49:54.001Z,90.27
2018-03-09T07:52:29.760Z,90.04
2018-03-09T07:55:04.466Z,89.99
2018-03-09T07:57:39.811Z,90.11
2018-03-09T08:00:15.012Z,90.08
2018-03-09T08:02:52.334Z,90.22
2018-03-09T08:05:27.569Z,90.08
2018-03-09T08:08:02.854Z,89.87
2018-03-09T08:10:38.479Z,89.67
2018-03-09T08:13:13.164Z,89.31
2018-03-09T08:15:47.679Z,89.22
2018-03-09T08:18:22.976Z,89.42
2018-03-09T08:20:57.621Z,88.87
2018-03-09T08:23:33.425Z,88.98
2018-03-09T08:26:08.959Z,88.25
2018-03-09T08:28:43.893Z,88.19
2018-03-09T08:31:19.203Z,87.42
2018-03-09T08:33:53.794Z,86.81
2018-03-09T08:36:28.828Z,86.80
2018-03-09T08:39:03.541Z,87.04
2018-03-09T08:41:38.792Z,87.12
2018-03-09T08:46:54.027Z,87.09
2018-03-09T08:49:29.039Z,87.00
2018-03-09T08:52:04.183Z,87.20
2018-03-09T08:54:39.193Z,87.34
2018-03-09T08:57:14.507Z,87.02
2018-03-09T08:59:49.695Z,86.88
2018-03-09T09:02:24.952Z,86.71
2018-03-09T09:05:00.059Z,86.77
2018-03-09T09:07:35.567Z,87.26
2018-03-09T09:10:10.947Z,87.05
2018-03-09T09:12:46.083Z,87.19
2018-03-09T09:15:21.187Z,86.95
2018-03-09T09:17:56.768Z,87.44
2018-03-09T09:20:31.977Z,87.36
2018-03-09T09:23:07.196Z,87.28
2018-03-09T09:25:42.685Z,87.31
2018-03-09T09:28:17.990Z,87.15
2018-03-09T09:30:52.820Z,87.03
2018-03-09T09:33:27.863Z,86.61
2018-03-09T09:36:04.072Z,86.92
2018-03-09T09:38:38.815Z,86.84
2018-03-09T09:41:14.036Z,85.74
2018-03-09T09:43:49.046Z,85.83
2018-03-09T09:46:24.071Z,86.18
2018-03-09T09:48:59.190Z,85.77
2018-03-09T09:51:34.983Z,85.40
2018-03-09T09:54:10.231Z,85.79
2018-03-09T09:56:45.150Z,86.25
2018-03-09T09:59:19.832Z,86.41
2018-03-09T10:01:54.954Z,86.11
2018-03-09T10:04:30.162Z,85.71
2018-03-09T10:07:05.112Z,85.09
2018-03-09T10:09:40.179Z,83.97
2018-03-09T10:12:15.699Z,84.42
2018-03-09T10:14:50.983Z,84.47
2018-03-09T10:17:25.884Z,84.24
2018-03-09T10:20:00.836Z,83.97
2018-03-09T10:22:36.068Z,83.96
2018-03-09T10:25:11.076Z,83.74
2018-03-09T10:27:46.114Z,84.12
2018-03-09T10:30:21.244Z,84.21
2018-03-09T10:32:57.536Z,84.14
2018-03-09T10:35:32.902Z,83.85
2018-03-09T10:38:09.227Z,83.66
2018-03-09T10:40:44.340Z,82.53
2018-03-09T10:43:19.356Z,82.78
2018-03-09T10:45:54.876Z,83.59
2018-03-09T10:48:29.991Z,83.63
2018-03-09T10:51:05.164Z,82.67
2018-03-09T10:53:39.988Z,82.73
2018-03-09T10:56:15.167Z,82.17
2018-03-09T10:58:49.971Z,82.24
2018-03-09T11:01:25.182Z,82.04
2018-03-09T11:04:00.027Z,82.20
2018-03-09T11:06:35.002Z,81.17
2018-03-09T11:09:10.276Z,81.34
2018-03-09T11:11:44.980Z,81.65
2018-03-09T11:14:20.201Z,81.81
2018-03-09T11:16:54.955Z,82.32
2018-03-09T11:19:30.015Z,81.98
2018-03-09T11:22:05.092Z,81.96
2018-03-09T11:24:40.135Z,82.06
2018-03-09T11:27:15.347Z,81.60
2018-03-09T11:29:50.284Z,81.51
2018-03-09T11:32:25.336Z,81.64
2018-03-09T11:35:01.354Z,82.15
2018-03-09T11:37:36.090Z,82.00
2018-03-09T11:40:11.229Z,81.89
2018-03-09T11:42:46.259Z,81.93
2018-03-09T11:45:21.506Z,81.93
2018-03-09T11:47:56.479Z,81.96
2018-03-09T11:50:31.880Z,82.05
2018-03-09T11:53:07.019Z,82.10
2018-03-09T11:55:42.008Z,81.87
2018-03-09T11:58:17.297Z,81.75
2018-03-09T12:00:52.142Z,81.72
2018-03-09T12:03:26.991Z,81.47
2018-03-09T12:06:02.050Z,81.80
2018-03-09T12:08:37.105Z,81.02
2018-03-09T12:11:12.003Z,80.26
2018-03-09T12:13:47.065Z,80.40
2018-03-09T12:16:22.407Z,80.27
2018-03-09T12:18:57.691Z,80.69
2018-03-09T12:21:33.022Z,81.14
2018-03-09T12:24:08.043Z,80.54
2018-03-09T12:26:43.055Z,80.54
2018-03-09T12:29:18.071Z,78.79
2018-03-09T12:31:53.113Z,78.08
2018-03-09T12:34:29.007Z,77.82
2018-03-09T12:37:04.266Z,78.07
2018-03-09T12:39:39.472Z,77.81
2018-03-09T12:42:14.498Z,75.47
2018-03-09T12:44:49.548Z,75.99
2018-03-09T12:47:25.174Z,74.80
2018-03-09T12:50:00.175Z,72.99
2018-03-09T12:52:35.163Z,72.78
2018-03-09T12:55:10.686Z,73.74
2018-03-09T12:57:45.709Z,74.30
2018-03-09T13:00:20.415Z,73.06
2018-03-09T13:02:55.268Z,73.21
2018-03-09T13:05:30.235Z,73.92
2018-03-09T13:08:05.229Z,74.87
2018-03-09T13:10:40.015Z,74.15
2018-03-09T13:13:17.215Z,73.50
2018-03-09T13:15:53.760Z,73.84
2018-03-09T13:18:33.805Z,73.97
2018-03-09T13:21:09.620Z,73.96
2018-03-09T13:23:44.511Z,74.03
2018-03-09T13:26:19.651Z,74.18
2018-03-09T13:28:54.596Z,73.96
2018-03-09T13:31:29.630Z,74.36
2018-03-09T13:34:04.451Z,74.32
2018-03-09T13:36:39.413Z,74.57
2018-03-09T13:39:14.451Z,74.52
2018-03-09T13:41:49.587Z,74.14
2018-03-09T13:44:24.645Z,73.53
2018-03-09T13:46:59.875Z,72.31
2018-03-09T13:49:35.203Z,71.16
2018-03-09T13:52:10.652Z,71.86
2018-03-09T13:54:46.195Z,70.64
2018-03-09T13:57:21.439Z,70.81
2018-03-09T13:59:56.524Z,71.10
2018-03-09T14:02:31.672Z,69.85
2018-03-09T14:05:07.262Z,70.19
2018-03-09T14:07:42.239Z,69.33
2018-03-09T14:10:17.515Z,68.54
2018-03-09T14:12:52.466Z,68.45
2018-03-09T14:15:26.804Z,68.79
2018-03-09T14:18:01.777Z,69.84
2018-03-09T14:20:36.955Z,69.34
2018-03-09T14:23:11.792Z,68.33
2018-03-09T14:25:47.279Z,67.28
2018-03-09T14:28:22.523Z,67.55
2018-03-09T14:30:57.433Z,67.81
2018-03-09T14:33:32.030Z,68.24
2018-03-09T14:36:07.502Z,68.27
2018-03-09T14:38:42.367Z,69.58
2018-03-09T14:41:17.406Z,68.79
2018-03-09T14:43:52.356Z,67.28
2018-03-09T14:46:27.603Z,67.39
2018-03-09T14:49:02.492Z,68.00
2018-03-09T14:51:37.459Z,68.42
2018-03-09T14:54:12.659Z,68.54
2018-03-09T14:56:47.716Z,68.21
2018-03-09T14:59:23.272Z,68.11
2018-03-09T15:01:58.386Z,67.63
2018-03-09T15:04:33.630Z,67.65
2018-03-09T15:07:09.707Z,68.03
2018-03-09T15:09:44.486Z,67.74
2018-03-09T15:12:19.695Z,68.09
2018-03-09T15:14:54.857Z,68.44
2018-03-09T15:17:29.807Z,69.00
2018-03-09T15:20:04.435Z,68.37
2018-03-09T15:22:39.707Z,67.48
2018-03-09T15:25:15.070Z,67.44
2018-03-09T15:27:50.035Z,67.40
2018-03-09T15:30:24.810Z,67.69
2018-03-09T15:32:59.664Z,67.85
2018-03-09T15:35:34.554Z,67.70
2018-03-09T15:38:09.374Z,67.74
2018-03-09T15:40:44.635Z,68.02
2018-03-09T15:43:19.959Z,68.38
2018-03-09T15:45:54.836Z,68.48
2018-03-09T15:48:29.470Z,68.29
2018-03-09T15:51:04.228Z,67.86
2018-03-09T15:53:39.503Z,67.67
2018-03-09T15:56:14.772Z,67.42
2018-03-09T15:58:50.019Z,67.51
2018-03-09T16:01:25.050Z,67.42
2018-03-09T16:04:00.529Z,67.39
2018-03-09T16:06:35.632Z,67.07
2018-03-09T16:09:10.948Z,66.90
2018-03-09T16:11:47.596Z,67.02
2018-03-09T16:14:22.868Z,65.58
2018-03-09T16:16:57.589Z,66.33
2018-03-09T16:19:32.663Z,65.88
2018-03-09T16:22:07.020Z,66.52
2018-03-09T16:24:41.668Z,67.02
2018-03-09T16:27:16.833Z,67.10
2018-03-09T16:29:51.897Z,67.65
2018-03-09T16:32:27.158Z,67.92
2018-03-09T16:35:02.621Z,67.80
2018-03-09T16:37:37.883Z,67.97
2018-03-09T16:40:13.010Z,68.74
2018-03-09T16:42:47.882Z,69.08
2018-03-09T16:45:22.683Z,69.54
2018-03-09T16:47:57.687Z,70.41
2018-03-09T16:50:32.811Z,70.54
2018-03-09T16:53:07.874Z,70.88
2018-03-09T16:55:43.474Z,70.89
2018-03-09T16:58:18.947Z,71.34
2018-03-09T17:00:53.765Z,71.67
2018-03-09T17:03:28.814Z,72.04
2018-03-09T17:06:03.861Z,71.92
2018-03-09T17:08:38.731Z,71.35
2018-03-09T17:11:14.043Z,71.77
2018-03-09T17:13:48.979Z,71.93
2018-03-09T17:16:24.438Z,71.79
2018-03-09T17:18:59.328Z,72.21
2018-03-09T17:21:34.670Z,72.66
2018-03-09T17:24:10.149Z,72.46
2018-03-09T17:26:45.459Z,72.81
2018-03-09T17:29:20.795Z,73.18
2018-03-09T17:31:55.850Z,73.60
2018-03-09T17:34:30.883Z,74.14
2018-03-09T17:37:04.819Z,74.49
2018-03-09T17:39:39.856Z,74.75
2018-03-09T17:42:15.310Z,75.56
2018-03-09T17:44:50.106Z,76.27
2018-03-09T17:47:25.010Z,76.43
2018-03-09T17:50:00.316Z,76.46
2018-03-09T17:52:35.230Z,76.60
2018-03-09T17:55:10.163Z,77.15
2018-03-09T17:57:45.212Z,77.87
2018-03-09T18:00:20.891Z,78.43
2018-03-09T18:02:55.760Z,78.80
2018-03-09T18:05:30.295Z,78.97
2018-03-09T18:08:05.128Z,79.28
2018-03-09T18:10:40.338Z,79.62
2018-03-09T18:13:15.550Z,79.76
2018-03-09T18:15:50.431Z,80.22
2018-03-09T18:18:25.898Z,80.77
2018-03-09T18:21:00.908Z,81.18
2018-03-09T18:23:48.508Z,81.61
2018-03-09T18:26:23.425Z,82.03
2018-03-09T18:28:58.160Z,82.16
2018-03-09T18:31:33.211Z,82.18
2018-03-09T18:34:08.064Z,82.28
2018-03-09T18:36:42.976Z,82.25
2018-03-09T18:39:18.198Z,82.24
2018-03-09T18:41:53.291Z,82.33
2018-03-09T18:44:28.218Z,82.38
2018-03-09T18:47:03.114Z,82.23
2018-03-09T18:49:38.409Z,82.18
2018-03-09T18:52:14.157Z,82.38
2018-03-09T18:54:49.014Z,82.26
2018-03-09T18:57:24.406Z,82.36
2018-03-09T19:00:00.059Z,82.17
2018-03-09T19:02:34.987Z,82.15
2018-03-09T19:05:10.375Z,82.17
2018-03-09T19:07:44.950Z,82.47
2018-03-09T19:10:20.182Z,82.74
2018-03-09T19:12:55.090Z,83.13
2018-03-09T19:15:30.070Z,83.35
2018-03-09T19:18:04.696Z,83.64
2018-03-09T19:20:39.031Z,83.87
2018-03-09T19:23:14.211Z,83.91
2018-03-09T19:25:49.236Z,84.08
2018-03-09T19:28:24.364Z,84.42
2018-03-09T19:30:59.235Z,84.31
2018-03-09T19:33:34.275Z,83.86
2018-03-09T19:36:10.411Z,83.84
2018-03-09T19:38:44.830Z,83.87
2018-03-09T19:41:20.091Z,83.95
2018-03-09T19:43:55.118Z,84.13
2018-03-09T19:46:30.325Z,84.29
2018-03-09T19:49:04.563Z,84.31
2018-03-09T19:51:39.281Z,84.03
2018-03-09T19:54:14.499Z,84.04
2018-03-09T19:56:49.987Z,84.02
2018-03-09T19:59:25.033Z,83.98
2018-03-09T20:02:00.106Z,84.04
2018-03-09T20:04:34.854Z,84.10
2018-03-09T20:07:10.395Z,84.24
2018-03-09T20:09:45.655Z,84.22
2018-03-09T20:12:20.337Z,84.26
2018-03-09T20:14:55.563Z,84.22
2018-03-09T20:17:30.555Z,84.14
2018-03-09T20:20:05.347Z,84.22
2018-03-09T20:22:40.400Z,84.44
2018-03-09T20:25:16.226Z,84.63
2018-03-09T20:27:50.596Z,84.90
2018-03-09T20:30:26.023Z,84.93
2018-03-09T20:33:01.344Z,84.88
2018-03-09T20:35:36.015Z,85.12
2018-03-09T20:38:11.104Z,85.01
2018-03-09T20:40:46.150Z,84.87
2018-03-09T20:43:21.400Z,84.69
2018-03-09T20:45:56.383Z,84.72
2018-03-09T20:48:31.384Z,84.73
2018-03-09T20:51:08.947Z,84.76
2018-03-09T20:53:43.244Z,84.58
2018-03-09T20:56:18.523Z,84.29
2018-03-09T20:58:53.188Z,84.13
2018-03-09T21:01:28.154Z,84.29
2018-03-09T21:04:03.304Z,84.58
2018-03-09T21:06:38.274Z,84.51
2018-03-09T21:09:13.571Z,84.36
2018-03-09T21:11:48.627Z,84.52
2018-03-09T21:14:23.699Z,84.72
2018-03-09T21:16:58.263Z,84.77
2018-03-09T21:19:33.276Z,85.04
2018-03-09T21:22:08.740Z,85.32
2018-03-09T21:24:44.198Z,85.53
2018-03-09T21:27:18.792Z,89.40
2018-03-09T21:29:53.276Z,88.39
2018-03-09T21:32:28.412Z,86.17
2018-03-09T21:35:03.255Z,84.51
2018-03-09T21:37:38.398Z,84.28
2018-03-09T21:40:13.531Z,83.99
2018-03-09T21:42:48.361Z,84.06
2018-03-09T21:45:23.550Z,84.31
2018-03-09T21:47:58.384Z,84.45
2018-03-09T21:50:33.318Z,84.39
2018-03-09T21:53:08.567Z,84.24
2018-03-09T21:55:43.598Z,84.34
2018-03-09T21:58:18.562Z,84.60
2018-03-09T22:00:53.270Z,84.83
2018-03-09T22:03:27.606Z,85.11
2018-03-09T22:06:02.342Z,85.10
2018-03-09T22:08:36.684Z,85.03
2018-03-09T22:11:12.239Z,85.11
2018-03-09T22:13:47.336Z,85.50
2018-03-09T22:16:22.279Z,85.62
2018-03-09T22:18:57.572Z,85.80
2018-03-09T22:21:32.447Z,85.78
2018-03-09T22:24:07.411Z,85.81
2018-03-09T22:26:42.451Z,85.96
2018-03-09T22:29:16.784Z,85.86
2018-03-09T22:31:52.216Z,85.83
2018-03-09T22:34:26.850Z,85.89
2018-03-09T22:37:01.916Z,85.89
2018-03-09T22:39:36.743Z,85.94
2018-03-09T22:42:11.194Z,86.03
2018-03-09T22:44:46.315Z,89.23
2018-03-09T22:47:21.898Z,91.07
2018-03-09T22:49:56.548Z,90.00
2018-03-09T22:52:31.806Z,88.83
2018-03-09T22:55:06.434Z,86.74
2018-03-09T22:57:41.575Z,86.25
2018-03-09T23:00:16.699Z,85.39
2018-03-09T23:02:51.847Z,84.20
2018-03-09T23:05:26.878Z,84.21
2018-03-09T23:08:01.745Z,84.84
2018-03-09T23:10:36.896Z,84.06
2018-03-09T23:13:12.718Z,83.24
2018-03-09T23:15:47.544Z,82.02
2018-03-09T23:18:22.034Z,82.94
2018-03-09T23:20:57.522Z,83.18
2018-03-09T23:23:32.511Z,82.91
2018-03-09T23:26:07.552Z,83.25
2018-03-09T23:28:41.899Z,83.07
2018-03-09T23:31:16.967Z,82.96
2018-03-09T23:33:51.811Z,82.28
2018-03-09T23:36:26.547Z,82.56
2018-03-09T23:39:01.777Z,83.87
2018-03-09T23:41:36.834Z,83.85
2018-03-09T23:44:11.695Z,84.24
2018-03-09T23:46:46.617Z,84.64
2018-03-09T23:49:22.054Z,84.71
2018-03-09T23:51:56.692Z,84.84
2018-03-09T23:54:31.643Z,84.75
2018-03-09T23:57:06.638Z,84.03
2018-03-09T23:59:42.123Z,83.53
